sensor_id;sensor_type;location;lat;lon;timestamp;P1;durP1;ratioP1;P2;durP2;ratioP2
24801;SDS011;12898;50.520;12.152;2022-07-29T00:00:01;8.57;;;3.00;;
24801;SDS011;12898;50.520;12.152;2022-07-29T00:02:28;5.53;;;2.55;;
24801;SDS011;12898;50.520;12.152;2022-07-29T00:04:54;11.43;;;2.92;;
24801;SDS011;12898;50.520;12.152;2022-07-29T00:07:20;6.30;;;2.58;;
24801;SDS011;12898;50.520;12.152;2022-07-29T00:09:46;7.60;;;2.67;;
24801;SDS011;12898;50.520;12.152;2022-07-29T00:12:11;9.40;;;3.20;;
24801;SDS011;12898;50.520;12.152;2022-07-29T00:14:37;9.35;;;3.22;;
24801;SDS011;12898;50.520;12.152;2022-07-29T00:17:03;8.75;;;2.85;;
24801;SDS011;12898;50.520;12.152;2022-07-29T00:19:28;10.02;;;3.83;;
24801;SDS011;12898;50.520;12.152;2022-07-29T00:21:54;8.25;;;2.90;;
24801;SDS011;12898;50.520;12.152;2022-07-29T00:24:20;7.72;;;3.40;;
24801;SDS011;12898;50.520;12.152;2022-07-29T00:26:45;7.75;;;2.97;;
24801;SDS011;12898;50.520;12.152;2022-07-29T00:29:11;6.65;;;3.22;;
24801;SDS011;12898;50.520;12.152;2022-07-29T00:31:37;8.75;;;3.00;;
24801;SDS011;12898;50.520;12.152;2022-07-29T00:34:02;6.82;;;3.08;;
24801;SDS011;12898;50.520;12.152;2022-07-29T00:36:28;8.45;;;3.17;;
24801;SDS011;12898;50.520;12.152;2022-07-29T00:38:54;7.55;;;3.10;;
24801;SDS011;12898;50.520;12.152;2022-07-29T00:41:20;6.15;;;2.90;;
24801;SDS011;12898;50.520;12.152;2022-07-29T00:43:45;7.57;;;3.15;;
24801;SDS011;12898;50.520;12.152;2022-07-29T00:46:11;6.72;;;3.25;;
24801;SDS011;12898;50.520;12.152;2022-07-29T00:48:37;8.02;;;2.88;;
24801;SDS011;12898;50.520;12.152;2022-07-29T00:51:03;7.93;;;2.70;;
24801;SDS011;12898;50.520;12.152;2022-07-29T00:53:30;5.40;;;2.72;;
24801;SDS011;12898;50.520;12.152;2022-07-29T00:55:57;8.20;;;3.20;;
24801;SDS011;12898;50.520;12.152;2022-07-29T00:58:24;8.48;;;3.30;;
24801;SDS011;12898;50.520;12.152;2022-07-29T01:00:51;7.50;;;2.70;;
24801;SDS011;12898;50.520;12.152;2022-07-29T01:03:17;7.05;;;3.28;;
24801;SDS011;12898;50.520;12.152;2022-07-29T01:05:43;11.20;;;3.60;;
24801;SDS011;12898;50.520;12.152;2022-07-29T01:08:11;9.85;;;3.60;;
24801;SDS011;12898;50.520;12.152;2022-07-29T01:10:39;12.52;;;3.50;;
24801;SDS011;12898;50.520;12.152;2022-07-29T01:13:06;8.48;;;3.60;;
24801;SDS011;12898;50.520;12.152;2022-07-29T01:15:33;13.55;;;3.90;;
24801;SDS011;12898;50.520;12.152;2022-07-29T01:24:33;8.75;;;3.80;;
24801;SDS011;12898;50.520;12.152;2022-07-29T01:30:36;11.88;;;3.53;;
24801;SDS011;12898;50.520;12.152;2022-07-29T01:33:06;8.85;;;3.67;;
24801;SDS011;12898;50.520;12.152;2022-07-29T01:35:56;11.27;;;3.78;;
24801;SDS011;12898;50.520;12.152;2022-07-29T01:38:24;10.27;;;3.85;;
24801;SDS011;12898;50.520;12.152;2022-07-29T01:40:53;10.75;;;3.65;;
24801;SDS011;12898;50.520;12.152;2022-07-29T01:43:27;9.98;;;4.00;;
24801;SDS011;12898;50.520;12.152;2022-07-29T01:46:04;7.90;;;3.58;;
24801;SDS011;12898;50.520;12.152;2022-07-29T01:48:38;9.00;;;3.78;;
24801;SDS011;12898;50.520;12.152;2022-07-29T01:51:25;13.15;;;4.20;;
24801;SDS011;12898;50.520;12.152;2022-07-29T01:54:06;9.93;;;4.10;;
24801;SDS011;12898;50.520;12.152;2022-07-29T01:56:39;9.80;;;4.00;;
24801;SDS011;12898;50.520;12.152;2022-07-29T01:59:08;13.48;;;4.45;;
24801;SDS011;12898;50.520;12.152;2022-07-29T02:01:34;12.27;;;4.57;;
24801;SDS011;12898;50.520;12.152;2022-07-29T02:04:03;9.18;;;4.40;;
24801;SDS011;12898;50.520;12.152;2022-07-29T02:06:31;11.48;;;5.05;;
24801;SDS011;12898;50.520;12.152;2022-07-29T02:08:58;12.38;;;4.95;;
24801;SDS011;12898;50.520;12.152;2022-07-29T02:11:26;10.30;;;4.18;;
24801;SDS011;12898;50.520;12.152;2022-07-29T02:13:52;10.10;;;5.05;;
24801;SDS011;12898;50.520;12.152;2022-07-29T02:16:21;11.15;;;4.20;;
24801;SDS011;12898;50.520;12.152;2022-07-29T02:18:49;11.95;;;5.13;;
24801;SDS011;12898;50.520;12.152;2022-07-29T02:21:19;11.48;;;4.97;;
24801;SDS011;12898;50.520;12.152;2022-07-29T02:23:49;9.77;;;4.50;;
24801;SDS011;12898;50.520;12.152;2022-07-29T02:26:18;9.20;;;4.18;;
24801;SDS011;12898;50.520;12.152;2022-07-29T02:28:46;12.35;;;4.90;;
24801;SDS011;12898;50.520;12.152;2022-07-29T02:31:14;11.18;;;4.75;;
24801;SDS011;12898;50.520;12.152;2022-07-29T02:33:44;9.45;;;4.45;;
24801;SDS011;12898;50.520;12.152;2022-07-29T02:36:11;9.73;;;4.50;;
24801;SDS011;12898;50.520;12.152;2022-07-29T02:38:37;13.00;;;5.32;;
24801;SDS011;12898;50.520;12.152;2022-07-29T02:41:16;13.07;;;5.03;;
24801;SDS011;12898;50.520;12.152;2022-07-29T02:43:46;11.82;;;5.47;;
24801;SDS011;12898;50.520;12.152;2022-07-29T02:46:18;9.48;;;4.65;;
24801;SDS011;12898;50.520;12.152;2022-07-29T02:49:13;10.73;;;4.47;;
24801;SDS011;12898;50.520;12.152;2022-07-29T02:52:00;11.40;;;4.63;;
24801;SDS011;12898;50.520;12.152;2022-07-29T02:54:50;9.77;;;4.82;;
24801;SDS011;12898;50.520;12.152;2022-07-29T02:57:34;10.35;;;4.78;;
24801;SDS011;12898;50.520;12.152;2022-07-29T03:00:08;10.50;;;5.00;;
24801;SDS011;12898;50.520;12.152;2022-07-29T03:02:39;10.52;;;4.50;;
24801;SDS011;12898;50.520;12.152;2022-07-29T03:05:11;10.77;;;4.43;;
24801;SDS011;12898;50.520;12.152;2022-07-29T03:07:45;10.20;;;4.60;;
24801;SDS011;12898;50.520;12.152;2022-07-29T03:10:16;11.38;;;4.68;;
24801;SDS011;12898;50.520;12.152;2022-07-29T03:12:42;10.10;;;4.63;;
24801;SDS011;12898;50.520;12.152;2022-07-29T03:15:08;8.45;;;4.47;;
24801;SDS011;12898;50.520;12.152;2022-07-29T03:17:35;13.73;;;4.90;;
24801;SDS011;12898;50.520;12.152;2022-07-29T03:20:02;9.40;;;4.50;;
24801;SDS011;12898;50.520;12.152;2022-07-29T03:22:28;14.02;;;4.80;;
24801;SDS011;12898;50.520;12.152;2022-07-29T03:24:54;8.30;;;4.25;;
24801;SDS011;12898;50.520;12.152;2022-07-29T03:27:20;8.57;;;4.40;;
24801;SDS011;12898;50.520;12.152;2022-07-29T03:29:46;9.38;;;4.68;;
24801;SDS011;12898;50.520;12.152;2022-07-29T03:32:11;10.52;;;5.07;;
24801;SDS011;12898;50.520;12.152;2022-07-29T03:34:37;15.90;;;5.55;;
24801;SDS011;12898;50.520;12.152;2022-07-29T03:37:03;10.55;;;4.70;;
24801;SDS011;12898;50.520;12.152;2022-07-29T03:39:31;11.00;;;4.95;;
24801;SDS011;12898;50.520;12.152;2022-07-29T03:42:05;13.52;;;4.38;;
24801;SDS011;12898;50.520;12.152;2022-07-29T03:44:33;13.90;;;4.72;;
24801;SDS011;12898;50.520;12.152;2022-07-29T03:47:00;10.60;;;4.80;;
24801;SDS011;12898;50.520;12.152;2022-07-29T03:49:26;9.30;;;4.47;;
24801;SDS011;12898;50.520;12.152;2022-07-29T03:51:54;13.20;;;6.32;;
24801;SDS011;12898;50.520;12.152;2022-07-29T03:54:20;12.43;;;5.97;;
24801;SDS011;12898;50.520;12.152;2022-07-29T03:56:46;13.88;;;5.57;;
24801;SDS011;12898;50.520;12.152;2022-07-29T03:59:15;13.43;;;4.93;;
24801;SDS011;12898;50.520;12.152;2022-07-29T04:01:43;12.82;;;5.70;;
24801;SDS011;12898;50.520;12.152;2022-07-29T04:04:09;13.50;;;5.40;;
24801;SDS011;12898;50.520;12.152;2022-07-29T04:06:39;12.00;;;5.38;;
24801;SDS011;12898;50.520;12.152;2022-07-29T04:09:11;9.82;;;5.30;;
24801;SDS011;12898;50.520;12.152;2022-07-29T04:11:40;12.02;;;5.15;;
24801;SDS011;12898;50.520;12.152;2022-07-29T04:14:07;11.23;;;5.20;;
24801;SDS011;12898;50.520;12.152;2022-07-29T04:16:32;11.90;;;5.25;;
24801;SDS011;12898;50.520;12.152;2022-07-29T04:18:59;16.65;;;5.50;;
24801;SDS011;12898;50.520;12.152;2022-07-29T04:21:24;9.43;;;4.90;;
24801;SDS011;12898;50.520;12.152;2022-07-29T04:23:50;12.30;;;5.22;;
24801;SDS011;12898;50.520;12.152;2022-07-29T04:26:17;9.02;;;4.82;;
24801;SDS011;12898;50.520;12.152;2022-07-29T04:28:43;9.93;;;4.78;;
24801;SDS011;12898;50.520;12.152;2022-07-29T04:31:10;10.20;;;4.72;;
24801;SDS011;12898;50.520;12.152;2022-07-29T04:33:37;10.18;;;4.70;;
24801;SDS011;12898;50.520;12.152;2022-07-29T04:36:03;10.52;;;4.90;;
24801;SDS011;12898;50.520;12.152;2022-07-29T04:38:29;9.65;;;4.85;;
24801;SDS011;12898;50.520;12.152;2022-07-29T04:40:55;10.85;;;4.63;;
24801;SDS011;12898;50.520;12.152;2022-07-29T04:43:21;9.57;;;5.03;;
24801;SDS011;12898;50.520;12.152;2022-07-29T04:45:47;9.75;;;4.72;;
24801;SDS011;12898;50.520;12.152;2022-07-29T04:48:12;11.20;;;4.93;;
24801;SDS011;12898;50.520;12.152;2022-07-29T04:50:38;8.50;;;4.50;;
24801;SDS011;12898;50.520;12.152;2022-07-29T04:53:05;11.77;;;5.13;;
24801;SDS011;12898;50.520;12.152;2022-07-29T04:55:31;9.88;;;4.97;;
24801;SDS011;12898;50.520;12.152;2022-07-29T04:57:57;11.73;;;4.95;;
24801;SDS011;12898;50.520;12.152;2022-07-29T05:00:23;11.02;;;4.65;;
24801;SDS011;12898;50.520;12.152;2022-07-29T05:02:49;11.25;;;4.63;;
24801;SDS011;12898;50.520;12.152;2022-07-29T05:05:17;11.13;;;4.47;;
24801;SDS011;12898;50.520;12.152;2022-07-29T05:07:43;11.75;;;5.05;;
24801;SDS011;12898;50.520;12.152;2022-07-29T05:10:09;11.90;;;4.65;;
24801;SDS011;12898;50.520;12.152;2022-07-29T05:12:35;11.82;;;5.05;;
24801;SDS011;12898;50.520;12.152;2022-07-29T05:15:00;10.35;;;4.78;;
24801;SDS011;12898;50.520;12.152;2022-07-29T05:17:26;12.57;;;4.95;;
24801;SDS011;12898;50.520;12.152;2022-07-29T05:19:52;9.70;;;5.00;;
24801;SDS011;12898;50.520;12.152;2022-07-29T05:22:18;16.65;;;5.72;;
24801;SDS011;12898;50.520;12.152;2022-07-29T05:24:45;13.05;;;4.90;;
24801;SDS011;12898;50.520;12.152;2022-07-29T05:27:10;15.73;;;5.20;;
24801;SDS011;12898;50.520;12.152;2022-07-29T05:29:36;10.00;;;4.95;;
24801;SDS011;12898;50.520;12.152;2022-07-29T05:32:02;11.13;;;5.47;;
24801;SDS011;12898;50.520;12.152;2022-07-29T05:34:29;15.88;;;8.52;;
24801;SDS011;12898;50.520;12.152;2022-07-29T05:36:55;19.35;;;10.18;;
24801;SDS011;12898;50.520;12.152;2022-07-29T05:39:21;18.52;;;7.95;;
24801;SDS011;12898;50.520;12.152;2022-07-29T05:41:48;15.95;;;7.07;;
24801;SDS011;12898;50.520;12.152;2022-07-29T05:44:16;16.15;;;6.00;;
24801;SDS011;12898;50.520;12.152;2022-07-29T05:46:42;12.68;;;5.65;;
24801;SDS011;12898;50.520;12.152;2022-07-29T05:49:07;14.18;;;6.00;;
24801;SDS011;12898;50.520;12.152;2022-07-29T05:51:34;13.60;;;6.18;;
24801;SDS011;12898;50.520;12.152;2022-07-29T05:54:00;12.52;;;5.55;;
24801;SDS011;12898;50.520;12.152;2022-07-29T05:56:26;12.80;;;5.32;;
24801;SDS011;12898;50.520;12.152;2022-07-29T05:58:52;11.32;;;4.97;;
24801;SDS011;12898;50.520;12.152;2022-07-29T06:01:18;12.60;;;5.47;;
24801;SDS011;12898;50.520;12.152;2022-07-29T06:03:44;13.23;;;5.53;;
24801;SDS011;12898;50.520;12.152;2022-07-29T06:06:10;11.93;;;5.35;;
24801;SDS011;12898;50.520;12.152;2022-07-29T06:08:36;10.45;;;4.65;;
24801;SDS011;12898;50.520;12.152;2022-07-29T06:11:03;12.68;;;5.00;;
24801;SDS011;12898;50.520;12.152;2022-07-29T06:13:29;16.27;;;4.65;;
24801;SDS011;12898;50.520;12.152;2022-07-29T06:15:55;12.63;;;4.80;;
24801;SDS011;12898;50.520;12.152;2022-07-29T06:18:21;13.48;;;5.07;;
24801;SDS011;12898;50.520;12.152;2022-07-29T06:20:49;11.18;;;4.82;;
24801;SDS011;12898;50.520;12.152;2022-07-29T06:23:18;14.45;;;4.82;;
24801;SDS011;12898;50.520;12.152;2022-07-29T06:25:45;12.43;;;4.43;;
24801;SDS011;12898;50.520;12.152;2022-07-29T06:28:11;11.68;;;3.90;;
24801;SDS011;12898;50.520;12.152;2022-07-29T06:30:37;10.63;;;4.05;;
24801;SDS011;12898;50.520;12.152;2022-07-29T06:33:04;8.82;;;4.03;;
24801;SDS011;12898;50.520;12.152;2022-07-29T06:35:30;12.02;;;4.55;;
24801;SDS011;12898;50.520;12.152;2022-07-29T06:37:59;11.68;;;4.82;;
24801;SDS011;12898;50.520;12.152;2022-07-29T06:40:26;13.45;;;4.32;;
24801;SDS011;12898;50.520;12.152;2022-07-29T06:43:10;14.10;;;4.35;;
24801;SDS011;12898;50.520;12.152;2022-07-29T06:45:36;11.27;;;4.03;;
24801;SDS011;12898;50.520;12.152;2022-07-29T06:48:03;7.65;;;3.42;;
24801;SDS011;12898;50.520;12.152;2022-07-29T06:50:29;13.93;;;3.85;;
24801;SDS011;12898;50.520;12.152;2022-07-29T06:52:55;9.25;;;3.75;;
24801;SDS011;12898;50.520;12.152;2022-07-29T06:55:21;8.27;;;3.28;;
24801;SDS011;12898;50.520;12.152;2022-07-29T06:57:49;7.97;;;3.20;;
24801;SDS011;12898;50.520;12.152;2022-07-29T07:00:15;9.25;;;3.80;;
24801;SDS011;12898;50.520;12.152;2022-07-29T07:02:41;10.35;;;4.63;;
24801;SDS011;12898;50.520;12.152;2022-07-29T07:05:09;10.23;;;3.60;;
24801;SDS011;12898;50.520;12.152;2022-07-29T07:07:35;10.57;;;3.70;;
24801;SDS011;12898;50.520;12.152;2022-07-29T07:10:01;11.80;;;3.92;;
24801;SDS011;12898;50.520;12.152;2022-07-29T07:12:26;8.23;;;3.72;;
24801;SDS011;12898;50.520;12.152;2022-07-29T07:14:52;6.38;;;3.30;;
24801;SDS011;12898;50.520;12.152;2022-07-29T07:17:18;9.35;;;3.47;;
24801;SDS011;12898;50.520;12.152;2022-07-29T07:19:43;14.60;;;3.63;;
24801;SDS011;12898;50.520;12.152;2022-07-29T07:22:10;9.32;;;3.35;;
24801;SDS011;12898;50.520;12.152;2022-07-29T07:24:35;10.77;;;3.08;;
24801;SDS011;12898;50.520;12.152;2022-07-29T07:27:02;9.35;;;3.20;;
24801;SDS011;12898;50.520;12.152;2022-07-29T07:29:27;11.23;;;3.30;;
24801;SDS011;12898;50.520;12.152;2022-07-29T07:31:53;9.18;;;3.00;;
24801;SDS011;12898;50.520;12.152;2022-07-29T07:34:20;12.05;;;3.28;;
24801;SDS011;12898;50.520;12.152;2022-07-29T07:36:45;12.52;;;2.97;;
24801;SDS011;12898;50.520;12.152;2022-07-29T07:39:11;6.85;;;3.28;;
24801;SDS011;12898;50.520;12.152;2022-07-29T07:41:37;8.20;;;3.15;;
24801;SDS011;12898;50.520;12.152;2022-07-29T07:44:02;9.10;;;3.00;;
24801;SDS011;12898;50.520;12.152;2022-07-29T07:46:28;12.73;;;3.40;;
24801;SDS011;12898;50.520;12.152;2022-07-29T07:48:54;9.45;;;3.50;;
24801;SDS011;12898;50.520;12.152;2022-07-29T07:51:19;6.43;;;2.53;;
24801;SDS011;12898;50.520;12.152;2022-07-29T07:53:45;5.32;;;2.70;;
24801;SDS011;12898;50.520;12.152;2022-07-29T07:56:14;7.53;;;2.88;;
24801;SDS011;12898;50.520;12.152;2022-07-29T07:58:41;5.90;;;2.55;;
24801;SDS011;12898;50.520;12.152;2022-07-29T08:01:07;10.20;;;2.75;;
24801;SDS011;12898;50.520;12.152;2022-07-29T08:03:34;7.88;;;2.97;;
24801;SDS011;12898;50.520;12.152;2022-07-29T08:06:00;9.48;;;3.42;;
24801;SDS011;12898;50.520;12.152;2022-07-29T08:08:26;7.60;;;2.83;;
24801;SDS011;12898;50.520;12.152;2022-07-29T08:10:53;8.38;;;2.92;;
24801;SDS011;12898;50.520;12.152;2022-07-29T08:13:20;5.28;;;2.50;;
24801;SDS011;12898;50.520;12.152;2022-07-29T08:15:48;10.43;;;3.00;;
24801;SDS011;12898;50.520;12.152;2022-07-29T08:18:25;6.22;;;2.50;;
24801;SDS011;12898;50.520;12.152;2022-07-29T08:20:54;8.30;;;2.55;;
24801;SDS011;12898;50.520;12.152;2022-07-29T08:23:20;10.30;;;3.00;;
24801;SDS011;12898;50.520;12.152;2022-07-29T08:25:47;6.25;;;2.50;;
24801;SDS011;12898;50.520;12.152;2022-07-29T08:28:15;7.18;;;2.75;;
24801;SDS011;12898;50.520;12.152;2022-07-29T08:30:41;8.93;;;2.88;;
24801;SDS011;12898;50.520;12.152;2022-07-29T08:33:07;8.23;;;2.63;;
24801;SDS011;12898;50.520;12.152;2022-07-29T08:35:32;8.55;;;2.92;;
24801;SDS011;12898;50.520;12.152;2022-07-29T08:37:58;6.82;;;2.90;;
24801;SDS011;12898;50.520;12.152;2022-07-29T08:40:24;7.43;;;2.60;;
24801;SDS011;12898;50.520;12.152;2022-07-29T08:42:50;9.27;;;2.85;;
24801;SDS011;12898;50.520;12.152;2022-07-29T08:45:16;5.63;;;2.80;;
24801;SDS011;12898;50.520;12.152;2022-07-29T08:47:43;6.90;;;2.75;;
24801;SDS011;12898;50.520;12.152;2022-07-29T08:50:12;13.25;;;2.67;;
24801;SDS011;12898;50.520;12.152;2022-07-29T08:52:39;7.78;;;2.92;;
24801;SDS011;12898;50.520;12.152;2022-07-29T08:55:06;10.77;;;3.00;;
24801;SDS011;12898;50.520;12.152;2022-07-29T08:57:34;8.95;;;3.00;;
24801;SDS011;12898;50.520;12.152;2022-07-29T09:00:01;8.52;;;3.22;;
24801;SDS011;12898;50.520;12.152;2022-07-29T09:02:32;7.95;;;3.28;;
24801;SDS011;12898;50.520;12.152;2022-07-29T09:05:05;6.30;;;2.75;;
24801;SDS011;12898;50.520;12.152;2022-07-29T09:07:31;11.65;;;3.10;;
24801;SDS011;12898;50.520;12.152;2022-07-29T09:09:57;9.15;;;3.00;;
24801;SDS011;12898;50.520;12.152;2022-07-29T09:12:24;9.52;;;3.33;;
24801;SDS011;12898;50.520;12.152;2022-07-29T09:14:50;7.43;;;3.13;;
24801;SDS011;12898;50.520;12.152;2022-07-29T09:17:16;9.73;;;3.63;;
24801;SDS011;12898;50.520;12.152;2022-07-29T09:19:42;7.45;;;3.00;;
24801;SDS011;12898;50.520;12.152;2022-07-29T09:22:08;7.22;;;2.83;;
24801;SDS011;12898;50.520;12.152;2022-07-29T09:24:37;7.32;;;2.83;;
24801;SDS011;12898;50.520;12.152;2022-07-29T09:27:18;11.55;;;3.63;;
24801;SDS011;12898;50.520;12.152;2022-07-29T09:29:47;13.60;;;3.30;;
24801;SDS011;12898;50.520;12.152;2022-07-29T09:32:26;6.50;;;2.90;;
24801;SDS011;12898;50.520;12.152;2022-07-29T09:37:46;5.93;;;3.47;;
24801;SDS011;12898;50.520;12.152;2022-07-29T09:40:13;9.20;;;2.92;;
24801;SDS011;12898;50.520;12.152;2022-07-29T09:42:45;9.68;;;3.53;;
24801;SDS011;12898;50.520;12.152;2022-07-29T09:45:11;9.95;;;2.88;;
24801;SDS011;12898;50.520;12.152;2022-07-29T09:47:43;10.20;;;2.78;;
24801;SDS011;12898;50.520;12.152;2022-07-29T09:50:13;7.38;;;3.25;;
24801;SDS011;12898;50.520;12.152;2022-07-29T09:52:48;7.35;;;2.67;;
24801;SDS011;12898;50.520;12.152;2022-07-29T09:55:16;8.18;;;3.33;;
24801;SDS011;12898;50.520;12.152;2022-07-29T09:57:43;9.88;;;3.00;;
24801;SDS011;12898;50.520;12.152;2022-07-29T10:00:11;10.05;;;3.60;;
24801;SDS011;12898;50.520;12.152;2022-07-29T10:02:45;6.80;;;3.35;;
24801;SDS011;12898;50.520;12.152;2022-07-29T10:05:22;9.77;;;3.47;;
24801;SDS011;12898;50.520;12.152;2022-07-29T10:07:51;6.47;;;3.03;;
24801;SDS011;12898;50.520;12.152;2022-07-29T10:10:23;7.10;;;3.13;;
24801;SDS011;12898;50.520;12.152;2022-07-29T10:12:55;8.18;;;3.40;;
24801;SDS011;12898;50.520;12.152;2022-07-29T10:15:27;7.20;;;2.95;;
24801;SDS011;12898;50.520;12.152;2022-07-29T10:17:55;8.20;;;3.40;;
24801;SDS011;12898;50.520;12.152;2022-07-29T10:20:22;6.72;;;3.17;;
24801;SDS011;12898;50.520;12.152;2022-07-29T10:22:49;11.90;;;3.50;;
24801;SDS011;12898;50.520;12.152;2022-07-29T10:25:16;9.05;;;3.22;;
24801;SDS011;12898;50.520;12.152;2022-07-29T10:27:44;8.25;;;2.97;;
24801;SDS011;12898;50.520;12.152;2022-07-29T10:30:11;5.18;;;3.15;;
24801;SDS011;12898;50.520;12.152;2022-07-29T10:38:44;10.55;;;3.25;;
24801;SDS011;12898;50.520;12.152;2022-07-29T10:46:47;10.07;;;3.50;;
24801;SDS011;12898;50.520;12.152;2022-07-29T10:51:54;4.95;;;3.15;;
24801;SDS011;12898;50.520;12.152;2022-07-29T10:54:36;10.30;;;3.13;;
24801;SDS011;12898;50.520;12.152;2022-07-29T10:59:46;5.93;;;3.38;;
24801;SDS011;12898;50.520;12.152;2022-07-29T11:05:12;6.20;;;3.30;;
24801;SDS011;12898;50.520;12.152;2022-07-29T11:10:37;6.95;;;3.45;;
24801;SDS011;12898;50.520;12.152;2022-07-29T11:13:04;7.80;;;3.80;;
24801;SDS011;12898;50.520;12.152;2022-07-29T11:15:51;4.90;;;3.25;;
24801;SDS011;12898;50.520;12.152;2022-07-29T11:18:20;6.78;;;3.55;;
24801;SDS011;12898;50.520;12.152;2022-07-29T11:20:46;7.45;;;3.65;;
24801;SDS011;12898;50.520;12.152;2022-07-29T11:25:44;10.30;;;3.75;;
24801;SDS011;12898;50.520;12.152;2022-07-29T11:28:19;8.43;;;3.47;;
24801;SDS011;12898;50.520;12.152;2022-07-29T11:30:50;6.95;;;3.45;;
24801;SDS011;12898;50.520;12.152;2022-07-29T11:33:31;8.55;;;3.45;;
24801;SDS011;12898;50.520;12.152;2022-07-29T11:36:19;6.80;;;3.47;;
24801;SDS011;12898;50.520;12.152;2022-07-29T11:38:44;7.78;;;3.45;;
24801;SDS011;12898;50.520;12.152;2022-07-29T11:41:19;4.53;;;3.40;;
24801;SDS011;12898;50.520;12.152;2022-07-29T11:43:46;5.15;;;3.40;;
24801;SDS011;12898;50.520;12.152;2022-07-29T11:49:19;6.10;;;3.30;;
24801;SDS011;12898;50.520;12.152;2022-07-29T11:51:50;9.55;;;3.40;;
24801;SDS011;12898;50.520;12.152;2022-07-29T11:54:21;5.53;;;3.40;;
24801;SDS011;12898;50.520;12.152;2022-07-29T11:56:51;11.52;;;3.75;;
24801;SDS011;12898;50.520;12.152;2022-07-29T11:59:18;6.18;;;3.58;;
24801;SDS011;12898;50.520;12.152;2022-07-29T12:01:54;5.82;;;3.60;;
24801;SDS011;12898;50.520;12.152;2022-07-29T12:04:22;7.07;;;3.83;;
24801;SDS011;12898;50.520;12.152;2022-07-29T12:06:57;6.03;;;3.42;;
24801;SDS011;12898;50.520;12.152;2022-07-29T12:09:23;7.10;;;3.50;;
24801;SDS011;12898;50.520;12.152;2022-07-29T12:11:49;9.00;;;3.55;;
24801;SDS011;12898;50.520;12.152;2022-07-29T12:14:33;4.47;;;3.28;;
24801;SDS011;12898;50.520;12.152;2022-07-29T12:16:59;6.20;;;3.67;;
24801;SDS011;12898;50.520;12.152;2022-07-29T12:19:28;5.10;;;3.40;;
24801;SDS011;12898;50.520;12.152;2022-07-29T12:21:54;5.60;;;3.30;;
24801;SDS011;12898;50.520;12.152;2022-07-29T12:24:23;6.68;;;3.38;;
24801;SDS011;12898;50.520;12.152;2022-07-29T12:26:52;7.22;;;3.20;;
24801;SDS011;12898;50.520;12.152;2022-07-29T12:29:21;6.32;;;3.40;;
24801;SDS011;12898;50.520;12.152;2022-07-29T12:31:51;6.15;;;3.42;;
24801;SDS011;12898;50.520;12.152;2022-07-29T12:34:19;7.43;;;3.38;;
24801;SDS011;12898;50.520;12.152;2022-07-29T12:36:47;7.38;;;3.42;;
24801;SDS011;12898;50.520;12.152;2022-07-29T12:39:14;7.65;;;3.55;;
24801;SDS011;12898;50.520;12.152;2022-07-29T12:41:42;4.55;;;3.10;;
24801;SDS011;12898;50.520;12.152;2022-07-29T12:44:08;6.47;;;3.63;;
24801;SDS011;12898;50.520;12.152;2022-07-29T12:46:37;5.85;;;3.30;;
24801;SDS011;12898;50.520;12.152;2022-07-29T12:49:03;5.55;;;3.22;;
24801;SDS011;12898;50.520;12.152;2022-07-29T12:54:11;6.07;;;3.33;;
24801;SDS011;12898;50.520;12.152;2022-07-29T12:56:39;7.82;;;3.50;;
24801;SDS011;12898;50.520;12.152;2022-07-29T12:59:16;7.45;;;3.30;;
24801;SDS011;12898;50.520;12.152;2022-07-29T13:01:44;7.15;;;3.45;;
24801;SDS011;12898;50.520;12.152;2022-07-29T13:04:24;4.85;;;3.30;;
24801;SDS011;12898;50.520;12.152;2022-07-29T13:06:59;6.93;;;3.80;;
24801;SDS011;12898;50.520;12.152;2022-07-29T13:09:44;12.90;;;4.15;;
24801;SDS011;12898;50.520;12.152;2022-07-29T13:12:13;9.02;;;3.58;;
24801;SDS011;12898;50.520;12.152;2022-07-29T13:14:40;13.50;;;3.28;;
24801;SDS011;12898;50.520;12.152;2022-07-29T13:17:12;7.22;;;3.40;;
24801;SDS011;12898;50.520;12.152;2022-07-29T13:19:49;11.85;;;3.05;;
24801;SDS011;12898;50.520;12.152;2022-07-29T13:22:20;11.10;;;3.50;;
24801;SDS011;12898;50.520;12.152;2022-07-29T13:24:53;6.68;;;2.90;;
24801;SDS011;12898;50.520;12.152;2022-07-29T13:27:24;6.97;;;3.85;;
24801;SDS011;12898;50.520;12.152;2022-07-29T13:29:54;7.90;;;3.65;;
24801;SDS011;12898;50.520;12.152;2022-07-29T13:32:23;11.07;;;3.92;;
24801;SDS011;12898;50.520;12.152;2022-07-29T13:34:51;5.25;;;3.42;;
24801;SDS011;12898;50.520;12.152;2022-07-29T13:37:17;7.25;;;3.70;;
24801;SDS011;12898;50.520;12.152;2022-07-29T13:39:43;8.73;;;4.00;;
24801;SDS011;12898;50.520;12.152;2022-07-29T13:42:09;10.15;;;3.80;;
24801;SDS011;12898;50.520;12.152;2022-07-29T13:44:38;7.38;;;3.45;;
24801;SDS011;12898;50.520;12.152;2022-07-29T13:47:05;8.18;;;3.20;;
24801;SDS011;12898;50.520;12.152;2022-07-29T13:49:31;7.50;;;3.90;;
24801;SDS011;12898;50.520;12.152;2022-07-29T13:51:57;8.00;;;3.90;;
24801;SDS011;12898;50.520;12.152;2022-07-29T13:54:23;7.13;;;3.70;;
24801;SDS011;12898;50.520;12.152;2022-07-29T13:56:49;10.43;;;3.60;;
24801;SDS011;12898;50.520;12.152;2022-07-29T13:59:16;8.82;;;3.03;;
24801;SDS011;12898;50.520;12.152;2022-07-29T14:01:42;9.73;;;2.33;;
24801;SDS011;12898;50.520;12.152;2022-07-29T14:04:09;5.70;;;2.28;;
24801;SDS011;12898;50.520;12.152;2022-07-29T14:06:36;5.75;;;2.63;;
24801;SDS011;12898;50.520;12.152;2022-07-29T14:09:04;5.13;;;3.17;;
24801;SDS011;12898;50.520;12.152;2022-07-29T14:11:39;13.77;;;3.90;;
24801;SDS011;12898;50.520;12.152;2022-07-29T14:14:04;11.93;;;4.60;;
24801;SDS011;12898;50.520;12.152;2022-07-29T14:16:30;11.93;;;4.93;;
24801;SDS011;12898;50.520;12.152;2022-07-29T14:18:56;10.70;;;4.63;;
24801;SDS011;12898;50.520;12.152;2022-07-29T14:21:22;8.48;;;4.13;;
24801;SDS011;12898;50.520;12.152;2022-07-29T14:23:49;5.20;;;3.40;;
24801;SDS011;12898;50.520;12.152;2022-07-29T14:26:15;5.25;;;2.95;;
24801;SDS011;12898;50.520;12.152;2022-07-29T14:28:41;4.63;;;3.20;;
24801;SDS011;12898;50.520;12.152;2022-07-29T14:31:08;3.83;;;2.90;;
24801;SDS011;12898;50.520;12.152;2022-07-29T14:33:34;6.97;;;2.97;;
24801;SDS011;12898;50.520;12.152;2022-07-29T14:36:00;5.40;;;2.65;;
24801;SDS011;12898;50.520;12.152;2022-07-29T14:38:25;4.30;;;2.45;;
24801;SDS011;12898;50.520;12.152;2022-07-29T14:40:51;4.65;;;2.47;;
24801;SDS011;12898;50.520;12.152;2022-07-29T14:43:17;5.32;;;2.17;;
24801;SDS011;12898;50.520;12.152;2022-07-29T14:45:43;7.40;;;2.70;;
24801;SDS011;12898;50.520;12.152;2022-07-29T14:48:09;4.65;;;2.72;;
24801;SDS011;12898;50.520;12.152;2022-07-29T14:50:36;6.07;;;2.80;;
24801;SDS011;12898;50.520;12.152;2022-07-29T14:53:02;4.78;;;2.50;;
24801;SDS011;12898;50.520;12.152;2022-07-29T14:55:28;5.63;;;2.45;;
24801;SDS011;12898;50.520;12.152;2022-07-29T14:57:54;3.30;;;2.20;;
24801;SDS011;12898;50.520;12.152;2022-07-29T15:00:20;4.78;;;2.58;;
24801;SDS011;12898;50.520;12.152;2022-07-29T15:02:46;3.40;;;2.72;;
24801;SDS011;12898;50.520;12.152;2022-07-29T15:05:18;4.18;;;2.55;;
24801;SDS011;12898;50.520;12.152;2022-07-29T15:07:44;4.47;;;2.70;;
24801;SDS011;12898;50.520;12.152;2022-07-29T15:10:09;4.85;;;2.63;;
24801;SDS011;12898;50.520;12.152;2022-07-29T15:12:35;6.10;;;3.17;;
24801;SDS011;12898;50.520;12.152;2022-07-29T15:15:01;4.97;;;3.25;;
24801;SDS011;12898;50.520;12.152;2022-07-29T15:17:27;8.07;;;3.97;;